createdAt,value
2023-04-13T00:00:37.992Z,99866.19
2023-04-13T00:03:42.616Z,99864.56
2023-04-13T00:06:47.937Z,99865.25
2023-04-13T00:09:52.625Z,99850.03
2023-04-13T00:12:59.119Z,99859.31
2023-04-13T00:16:03.678Z,99857.25
2023-04-13T00:19:07.726Z,99844.13
2023-04-13T00:22:11.491Z,99825.72
2023-04-13T00:25:16.831Z,99860.75
2023-04-13T00:28:21.450Z,99858.59
2023-04-13T00:31:26.189Z,99832.28
2023-04-13T00:34:30.874Z,99836.22
2023-04-13T00:37:38.091Z,99844.28
2023-04-13T00:40:43.086Z,99836.63
2023-04-13T00:43:47.559Z,99847.88
2023-04-13T00:46:55.118Z,99863.75
2023-04-13T00:50:02.958Z,99861.03
2023-04-13T00:53:10.620Z,99860.00
2023-04-13T00:56:15.834Z,99826.84
2023-04-13T00:59:21.657Z,99856.84
2023-04-13T01:02:28.211Z,99866.66
2023-04-13T01:05:58.146Z,99844.88
2023-04-13T01:09:17.874Z,99879.31
2023-04-13T01:12:39.585Z,99875.31
2023-04-13T01:15:53.077Z,99873.84
2023-04-13T01:18:57.788Z,99872.28
2023-04-13T01:22:04.235Z,99838.53
2023-04-13T01:25:48.098Z,99857.84
2023-04-13T01:28:54.373Z,99816.94
2023-04-13T01:31:59.872Z,99836.31
2023-04-13T01:35:05.834Z,99845.47
2023-04-13T01:38:10.776Z,99854.50
2023-04-13T01:41:15.414Z,99862.31
2023-04-13T01:44:23.139Z,99848.78
2023-04-13T01:47:29.734Z,99834.78
2023-04-13T01:50:46.732Z,99832.25
2023-04-13T01:54:21.238Z,99847.94
2023-04-13T01:57:27.120Z,99822.25
2023-04-13T02:00:37.190Z,99822.75
2023-04-13T02:03:46.979Z,99822.75
2023-04-13T02:06:52.468Z,99816.31
2023-04-13T02:10:06.867Z,99818.25
2023-04-13T02:13:11.680Z,99840.69
2023-04-13T02:16:16.566Z,99848.94
2023-04-13T02:19:22.617Z,99839.56
2023-04-13T02:22:27.573Z,99835.19
2023-04-13T02:25:32.503Z,99839.69
2023-04-13T02:28:36.825Z,99837.72
2023-04-13T02:31:44.769Z,99834.88
2023-04-13T02:34:49.037Z,99832.22
2023-04-13T02:37:53.323Z,99835.06
2023-04-13T02:41:01.431Z,99825.50
2023-04-13T02:44:05.760Z,99808.63
2023-04-13T02:47:19.745Z,99798.72
2023-04-13T02:50:24.607Z,99830.09
2023-04-13T02:53:37.268Z,99820.06
2023-04-13T02:56:45.859Z,99832.97
2023-04-13T02:59:51.573Z,99816.81
2023-04-13T03:02:57.569Z,99839.19
2023-04-13T03:06:07.667Z,99848.16
2023-04-13T03:09:39.010Z,99820.75
2023-04-13T03:12:43.029Z,99825.50
2023-04-13T03:15:48.795Z,99842.41
2023-04-13T03:18:53.476Z,99847.72
2023-04-13T03:21:58.117Z,99823.59
2023-04-13T03:25:05.003Z,99813.91
2023-04-13T03:28:14.836Z,99831.91
2023-04-13T03:31:23.034Z,99842.44
2023-04-13T03:34:29.433Z,99849.91
2023-04-13T03:37:41.193Z,99864.28
2023-04-13T03:40:57.957Z,99851.97
2023-04-13T03:44:05.908Z,99844.22
2023-04-13T03:47:10.586Z,99874.25
2023-04-13T03:50:15.482Z,99855.63
2023-04-13T03:53:19.661Z,99873.97
2023-04-13T03:56:25.452Z,99863.00
2023-04-13T03:59:29.869Z,99874.19
2023-04-13T04:02:34.558Z,99882.81
2023-04-13T04:05:41.260Z,99876.78
2023-04-13T04:08:50.480Z,99890.28
2023-04-13T04:12:14.723Z,99865.53
2023-04-13T04:15:21.681Z,99868.44
2023-04-13T04:18:32.713Z,99897.91
2023-04-13T04:21:37.946Z,99902.06
2023-04-13T04:24:47.077Z,99900.66
2023-04-13T04:27:58.848Z,99908.16
2023-04-13T04:31:05.866Z,99903.66
2023-04-13T04:34:11.518Z,99903.81
2023-04-13T04:37:22.073Z,99912.16
2023-04-13T04:40:45.984Z,99885.91
2023-04-13T04:43:52.436Z,99894.38
2023-04-13T04:46:56.704Z,99919.31
2023-04-13T04:50:02.717Z,99934.16
2023-04-13T04:53:14.642Z,99931.63
2023-04-13T04:56:18.649Z,99929.84
2023-04-13T04:59:26.764Z,99942.22
2023-04-13T05:02:38.885Z,99942.06
2023-04-13T05:05:47.529Z,99946.16
2023-04-13T05:09:00.739Z,99955.56
2023-04-13T05:12:07.529Z,99957.53
2023-04-13T05:15:13.549Z,99951.63
2023-04-13T05:18:18.100Z,99962.09
2023-04-13T05:21:22.727Z,99940.97
2023-04-13T05:24:34.513Z,99936.19
2023-04-13T05:27:44.671Z,99939.19
2023-04-13T05:30:51.268Z,99952.50
2023-04-13T05:33:55.494Z,99969.53
2023-04-13T05:37:04.157Z,99968.97
2023-04-13T05:40:12.827Z,99971.34
2023-04-13T05:43:18.021Z,99938.69
2023-04-13T05:46:27.121Z,99964.69
2023-04-13T05:49:32.962Z,99973.81
2023-04-13T05:52:37.959Z,99964.25
2023-04-13T05:55:46.669Z,99976.28
2023-04-13T05:58:53.282Z,99962.97
2023-04-13T06:02:11.111Z,99987.13
2023-04-13T06:05:19.303Z,100000.38
2023-04-13T06:08:24.299Z,99997.16
2023-04-13T06:11:28.652Z,100007.03
2023-04-13T06:14:33.435Z,99973.25
2023-04-13T06:17:37.833Z,99955.28
2023-04-13T06:20:43.585Z,100022.91
2023-04-13T06:23:48.244Z,100006.97
2023-04-13T06:27:02.405Z,100031.00
2023-04-13T06:30:11.154Z,100019.69
2023-04-13T06:33:16.351Z,100030.00
2023-04-13T06:36:21.111Z,100020.81
2023-04-13T06:39:27.116Z,100027.78
2023-04-13T06:42:37.504Z,100011.59
2023-04-13T06:46:03.067Z,100041.91
2023-04-13T06:49:10.059Z,100004.63
2023-04-13T06:52:16.665Z,100024.56
2023-04-13T06:55:21.634Z,100049.69
2023-04-13T06:58:26.479Z,100044.81
2023-04-13T07:01:30.594Z,100050.53
2023-04-13T07:04:35.865Z,100056.75
2023-04-13T07:07:41.699Z,100045.88
2023-04-13T07:10:48.487Z,100064.28
2023-04-13T07:14:04.318Z,100063.47
2023-04-13T07:17:10.183Z,100066.88
2023-04-13T07:20:17.110Z,100059.97
2023-04-13T07:23:24.222Z,100059.22
2023-04-13T07:26:29.824Z,100086.94
2023-04-13T07:29:35.859Z,100087.31
2023-04-13T07:32:45.176Z,100115.16
2023-04-13T07:35:51.200Z,100100.31
2023-04-13T07:38:56.190Z,100126.28
2023-04-13T07:42:01.061Z,100111.97
2023-04-13T07:45:16.415Z,100115.22
2023-04-13T07:48:23.124Z,100133.53
2023-04-13T07:51:27.861Z,100150.69
2023-04-13T07:54:32.309Z,100112.81
2023-04-13T07:57:37.447Z,100141.34
2023-04-13T08:00:43.467Z,100143.44
2023-04-13T08:03:48.492Z,100161.56
2023-04-13T08:06:57.883Z,100160.53
2023-04-13T08:10:04.262Z,100169.91
2023-04-13T08:13:09.208Z,100163.72
2023-04-13T08:16:13.752Z,100199.84
2023-04-13T08:19:19.582Z,100173.63
2023-04-13T08:22:28.912Z,100194.34
2023-04-13T08:25:35.285Z,100202.50
2023-04-13T08:28:39.880Z,100187.56
2023-04-13T08:31:44.045Z,100212.13
2023-04-13T08:34:48.758Z,100174.09
2023-04-13T08:37:55.055Z,100206.56
2023-04-13T08:40:59.832Z,100203.09
2023-04-13T08:44:08.456Z,100209.13
2023-04-13T08:47:17.454Z,100217.03
2023-04-13T08:50:23.951Z,100197.69
2023-04-13T08:53:30.968Z,100230.13
2023-04-13T08:56:46.229Z,100213.50
2023-04-13T08:59:59.078Z,100220.44
2023-04-13T09:03:09.728Z,100216.41
2023-04-13T09:06:33.888Z,100240.09
2023-04-13T09:09:46.726Z,100217.34
2023-04-13T09:12:53.924Z,100205.94
2023-04-13T09:15:58.545Z,100230.41
2023-04-13T09:19:35.383Z,100251.47
2023-04-13T09:22:43.601Z,100253.25
2023-04-13T09:25:48.488Z,100237.72
2023-04-13T09:28:56.585Z,100217.69
2023-04-13T09:32:01.261Z,100232.44
2023-04-13T09:35:09.408Z,100245.38
2023-04-13T09:38:16.286Z,100258.63
2023-04-13T09:41:38.274Z,100270.00
2023-04-13T09:44:44.293Z,100277.91
2023-04-13T09:47:49.658Z,100267.34
2023-04-13T09:51:01.552Z,100291.06
2023-04-13T09:54:07.749Z,100278.81
2023-04-13T09:57:11.677Z,100285.88
2023-04-13T10:00:26.111Z,100271.94
2023-04-13T10:03:35.177Z,100311.28
2023-04-13T10:06:47.808Z,100305.16
2023-04-13T10:09:57.054Z,100307.81
2023-04-13T10:13:08.978Z,100310.50
2023-04-13T10:16:37.888Z,100339.38
2023-04-13T10:19:53.720Z,100344.66
2023-04-13T10:23:08.868Z,100337.66
2023-04-13T10:26:13.641Z,100346.44
2023-04-13T10:29:29.243Z,100347.31
2023-04-13T10:32:33.720Z,100359.56
2023-04-13T10:35:39.412Z,100371.81
2023-04-13T10:38:47.857Z,100374.44
2023-04-13T10:42:02.442Z,100375.31
2023-04-13T10:45:17.389Z,100379.69
2023-04-13T10:48:25.069Z,100380.56
2023-04-13T10:51:49.829Z,100397.19
2023-04-13T10:54:55.314Z,100368.31
2023-04-13T10:58:01.181Z,100403.28
2023-04-13T11:01:07.168Z,100387.53
2023-04-13T11:04:15.152Z,100400.66
2023-04-13T11:07:27.037Z,100400.69
2023-04-13T11:10:32.962Z,100371.81
2023-04-13T11:13:45.136Z,100411.16
2023-04-13T11:16:58.244Z,100419.84
2023-04-13T11:20:10.593Z,100401.53
2023-04-13T11:23:19.745Z,100426.91
2023-04-13T11:26:38.942Z,100421.50
2023-04-13T11:29:42.998Z,100421.56
2023-04-13T11:32:49.517Z,100364.63
2023-04-13T11:35:56.481Z,100396.16
2023-04-13T11:39:02.654Z,100430.28
2023-04-13T11:42:10.109Z,100428.56
2023-04-13T11:45:20.405Z,100442.56
2023-04-13T11:48:29.513Z,100436.44
2023-04-13T11:51:36.052Z,100435.59
2023-04-13T11:54:41.802Z,100417.16
2023-04-13T11:57:46.495Z,100445.13
2023-04-13T12:00:50.917Z,100441.63
2023-04-13T12:04:12.857Z,100448.59
2023-04-13T12:07:22.424Z,100440.75
2023-04-13T12:10:39.473Z,100446.09
2023-04-13T12:14:06.452Z,100446.09
2023-04-13T12:20:23.395Z,100455.72
2023-04-13T12:23:28.448Z,100461.72
2023-04-13T12:27:17.259Z,100446.94
2023-04-13T12:30:07.405Z,100439.13
2023-04-13T12:33:13.098Z,100467.94
2023-04-13T12:36:17.552Z,100450.50
2023-04-13T12:39:22.331Z,100458.41
2023-04-13T12:42:26.824Z,100454.06
2023-04-13T12:45:31.931Z,100465.38
2023-04-13T12:48:37.265Z,100461.88
2023-04-13T12:51:41.521Z,100461.81
2023-04-13T12:54:45.916Z,100460.03
2023-04-13T12:57:50.941Z,100466.25
2023-04-13T13:00:56.890Z,100475.91
2023-04-13T13:04:01.527Z,100476.78
2023-04-13T13:07:07.932Z,100484.66
2023-04-13T13:10:29.244Z,100482.94
2023-04-13T13:13:34.304Z,100485.56
2023-04-13T13:16:39.009Z,100465.38
2023-04-13T13:19:43.751Z,100483.81
2023-04-13T13:22:48.700Z,100496.88
2023-04-13T13:26:17.394Z,100509.19
2023-04-13T13:29:18.866Z,100506.41
2023-04-13T13:32:23.738Z,100487.09
2023-04-13T13:35:28.384Z,100515.97
2023-04-13T13:38:34.500Z,100509.03
2023-04-13T13:41:41.219Z,100511.63
2023-04-13T13:44:45.870Z,100492.34
2023-04-13T13:47:54.143Z,100527.47
2023-04-13T13:51:07.855Z,100506.44
2023-04-13T13:54:13.824Z,100518.81
2023-04-13T13:57:18.326Z,100500.47
2023-04-13T14:00:22.621Z,100520.63
2023-04-13T14:03:28.065Z,100517.97
2023-04-13T14:06:35.334Z,100532.84
2023-04-13T14:09:41.180Z,100539.03
2023-04-13T14:12:49.598Z,100546.78
2023-04-13T14:15:54.768Z,100552.91
2023-04-13T14:18:59.823Z,100549.47
2023-04-13T14:22:04.665Z,100543.38
2023-04-13T14:25:10.194Z,100557.34
2023-04-13T14:28:15.380Z,100551.19
2023-04-13T14:31:20.112Z,100559.06
2023-04-13T14:34:24.636Z,100547.59
2023-04-13T14:37:29.287Z,100548.44
2023-04-13T14:40:34.474Z,100565.16
2023-04-13T14:43:38.591Z,100551.13
2023-04-13T14:46:43.190Z,100552.84
2023-04-13T14:49:48.502Z,100567.69
2023-04-13T14:52:53.198Z,100566.81
2023-04-13T14:55:58.303Z,100564.13
2023-04-13T14:59:03.538Z,100565.88
2023-04-13T15:02:09.446Z,100565.88
2023-04-13T15:05:13.937Z,100534.19
2023-04-13T15:08:20.251Z,100553.56
2023-04-13T15:11:24.726Z,100554.34
2023-04-13T15:14:29.301Z,100552.53
2023-04-13T15:17:34.072Z,100550.72
2023-04-13T15:20:38.746Z,100549.84
2023-04-13T15:23:42.996Z,100563.72
2023-04-13T15:26:47.613Z,100548.78
2023-04-13T15:30:04.300Z,100524.28
2023-04-13T15:33:09.160Z,100547.09
2023-04-13T15:36:17.620Z,100541.75
2023-04-13T15:39:22.376Z,100543.38
2023-04-13T15:42:26.993Z,100552.09
2023-04-13T15:45:31.713Z,100544.06
2023-04-13T15:48:36.496Z,100544.09
2023-04-13T15:51:41.432Z,100543.97
2023-04-13T15:54:45.813Z,100511.50
2023-04-13T15:57:51.378Z,100526.53
2023-04-13T16:01:06.933Z,100524.53
2023-04-13T16:04:12.334Z,100505.22
2023-04-13T16:07:17.210Z,100519.91
2023-04-13T16:10:21.812Z,100514.53
2023-04-13T16:13:34.778Z,100460.16
2023-04-13T16:16:47.421Z,100506.63
2023-04-13T16:19:54.316Z,100511.06
2023-04-13T16:23:03.409Z,100511.84
2023-04-13T16:26:08.556Z,100510.94
2023-04-13T16:29:13.089Z,100461.91
2023-04-13T16:32:17.096Z,100512.66
2023-04-13T16:35:21.088Z,100523.13
2023-04-13T16:38:25.472Z,100512.59
2023-04-13T16:41:29.413Z,100528.34
2023-04-13T16:44:34.145Z,100522.38
2023-04-13T16:47:39.049Z,100520.75
2023-04-13T16:50:43.612Z,100518.72
2023-04-13T16:53:49.204Z,100520.59
2023-04-13T16:56:53.778Z,100532.00
2023-04-13T17:00:01.812Z,100517.13
2023-04-13T17:03:08.711Z,100535.88
2023-04-13T17:06:12.870Z,100527.22
2023-04-13T17:09:18.502Z,100521.13
2023-04-13T17:12:27.408Z,100545.88
2023-04-13T17:15:34.756Z,100547.69
2023-04-13T17:18:39.493Z,100553.91
2023-04-13T17:21:43.864Z,100551.16
2023-04-13T17:24:48.205Z,100551.81
2023-04-13T17:27:53.471Z,100551.03
2023-04-13T17:30:58.280Z,100545.03
2023-04-13T17:34:02.922Z,100548.63
2023-04-13T17:37:08.448Z,100519.63
2023-04-13T17:40:13.301Z,100553.59
2023-04-13T17:43:17.621Z,100542.41
2023-04-13T17:46:22.016Z,100540.81
2023-04-13T17:49:28.702Z,100542.47
2023-04-13T17:52:33.303Z,100513.38
2023-04-13T17:55:38.454Z,100515.13
2023-04-13T17:58:43.112Z,100528.63
2023-04-13T18:01:47.635Z,100530.97
2023-04-13T18:04:52.701Z,100518.66
2023-04-13T18:07:57.307Z,100503.63
2023-04-13T18:11:01.890Z,100506.41
2023-04-13T18:14:06.770Z,100535.03
2023-04-13T18:17:11.004Z,100523.84
2023-04-13T18:20:15.359Z,100525.00
2023-04-13T18:23:21.188Z,100520.63
2023-04-13T18:26:25.455Z,100526.81
2023-04-13T18:29:29.945Z,100527.75
2023-04-13T18:32:34.792Z,100498.66
2023-04-13T18:35:43.700Z,100537.13
2023-04-13T18:38:48.252Z,100520.63
2023-04-13T18:41:52.868Z,100551.25
2023-04-13T18:44:57.477Z,100550.25
2023-04-13T18:48:02.079Z,100541.28
2023-04-13T18:51:08.791Z,100544.75
2023-04-13T18:54:13.550Z,100520.53
2023-04-13T18:57:17.781Z,100534.47
2023-04-13T19:00:22.677Z,100544.13
2023-04-13T19:03:27.306Z,100545.13
2023-04-13T19:06:31.685Z,100551.34
2023-04-13T19:09:39.542Z,100552.81
2023-04-13T19:12:43.843Z,100557.16
2023-04-13T19:15:48.177Z,100536.84
2023-04-13T19:18:53.036Z,100534.13
2023-04-13T19:21:58.117Z,100542.91
2023-04-13T19:25:02.676Z,100552.44
2023-04-13T19:28:07.142Z,100548.94
2023-04-13T19:31:12.854Z,100557.78
2023-04-13T19:34:17.369Z,100549.84
2023-04-13T19:37:22.468Z,100554.28
2023-04-13T19:40:28.090Z,100551.94
2023-04-13T19:43:32.481Z,100557.06
2023-04-13T19:46:37.614Z,100560.50
2023-04-13T19:49:41.553Z,100559.59
2023-04-13T19:52:48.024Z,100555.13
2023-04-13T19:55:52.928Z,100568.13
2023-04-13T19:58:57.089Z,100562.28
2023-04-13T20:02:01.561Z,100534.22
2023-04-13T20:05:07.182Z,100560.66
2023-04-13T20:08:11.821Z,100492.19
2023-04-13T20:11:16.457Z,100556.13
2023-04-13T20:14:20.735Z,100556.41
2023-04-13T20:17:25.190Z,100540.28
2023-04-13T20:20:30.380Z,100553.72
2023-04-13T20:23:36.402Z,100537.03
2023-04-13T20:26:40.802Z,100550.31
2023-04-13T20:29:45.457Z,100561.66
2023-04-13T20:32:49.899Z,100564.16
2023-04-13T20:35:55.699Z,100558.16
2023-04-13T20:39:02.676Z,100568.41
2023-04-13T20:42:09.055Z,100531.78
2023-04-13T20:45:15.592Z,100576.72
2023-04-13T20:51:27.112Z,100575.09
2023-04-13T20:54:31.372Z,100530.28
2023-04-13T21:01:17.951Z,100560.91
2023-04-13T21:04:22.476Z,100569.75
2023-04-13T21:07:29.269Z,100573.03
2023-04-13T21:10:33.822Z,100578.41
2023-04-13T21:13:37.878Z,100570.69
2023-04-13T21:16:44.424Z,100561.13
2023-04-13T21:19:51.732Z,100518.13
2023-04-13T21:22:57.776Z,100585.63
2023-04-13T21:26:02.178Z,100587.09
2023-04-13T21:29:08.397Z,100556.25
2023-04-13T21:32:14.372Z,100584.56
2023-04-13T21:35:21.712Z,100578.53
2023-04-13T21:38:25.623Z,100564.56
2023-04-13T21:41:29.783Z,100581.28
2023-04-13T21:44:34.530Z,100595.44
2023-04-13T21:47:40.934Z,100592.88
2023-04-13T21:50:45.966Z,100586.50
2023-04-13T21:53:50.517Z,100595.94
2023-04-13T21:56:55.015Z,100612.53
2023-04-13T21:59:59.602Z,100614.81
2023-04-13T22:03:04.454Z,100607.75
2023-04-13T22:06:10.604Z,100628.25
2023-04-13T22:09:14.825Z,100608.13
2023-04-13T22:12:19.390Z,100626.50
2023-04-13T22:15:23.431Z,100617.66
2023-04-13T22:18:28.316Z,100625.56
2023-04-13T22:21:35.077Z,100636.97
2023-04-13T22:24:39.590Z,100630.97
2023-04-13T22:27:44.778Z,100629.31
2023-04-13T22:30:49.576Z,100620.59
2023-04-13T22:33:54.375Z,100658.91
2023-04-13T22:36:59.032Z,100641.22
2023-04-13T22:40:03.952Z,100622.16
2023-04-13T22:43:08.644Z,100638.16
2023-04-13T22:46:12.812Z,100626.81
2023-04-13T22:49:17.195Z,100652.38
2023-04-13T22:52:21.848Z,100655.34
2023-04-13T22:55:26.385Z,100658.88
2023-04-13T22:58:30.961Z,100663.25
2023-04-13T23:01:35.341Z,100656.25
2023-04-13T23:04:40.187Z,100674.22
2023-04-13T23:07:44.922Z,100685.91
2023-04-13T23:10:48.906Z,100662.38
2023-04-13T23:13:55.866Z,100654.44
2023-04-13T23:17:00.297Z,100652.72
2023-04-13T23:20:07.919Z,100652.56
2023-04-13T23:23:12.674Z,100652.78
2023-04-13T23:26:17.092Z,100618.56
2023-04-13T23:29:22.961Z,100665.69
2023-04-13T23:32:27.242Z,100651.41
2023-04-13T23:35:31.822Z,100658.44
2023-04-13T23:38:36.497Z,100678.50
2023-04-13T23:41:40.962Z,100684.47
2023-04-13T23:44:45.291Z,100679.34
2023-04-13T23:47:49.763Z,100674.63
2023-04-13T23:50:54.346Z,100695.56
2023-04-13T23:53:58.426Z,100647.28
2023-04-13T23:57:03.357Z,100701.13
